createdAt,value
2022-10-25T00:01:21.463Z,96730.75
2022-10-25T00:03:48.602Z,96732.69
2022-10-25T00:06:15.793Z,96729.44
2022-10-25T00:08:42.567Z,96728.75
2022-10-25T00:11:20.301Z,96735.03
2022-10-25T00:13:50.427Z,96733.84
2022-10-25T00:16:21.289Z,96738.72
2022-10-25T00:18:48.409Z,96738.47
2022-10-25T00:21:15.198Z,96739.50
2022-10-25T00:23:42.141Z,96730.56
2022-10-25T00:26:10.963Z,96734.63
2022-10-25T00:28:38.403Z,96745.16
2022-10-25T00:31:15.044Z,96751.19
2022-10-25T00:33:43.566Z,96751.81
2022-10-25T00:36:15.243Z,96752.22
2022-10-25T00:38:42.965Z,96751.63
2022-10-25T00:41:11.266Z,96753.28
2022-10-25T00:43:47.729Z,96754.03
2022-10-25T00:46:20.272Z,96752.81
2022-10-25T00:49:18.703Z,96749.94
2022-10-25T00:51:56.305Z,96753.13
2022-10-25T00:54:29.889Z,96752.31
2022-10-25T00:57:00.615Z,96753.91
2022-10-25T00:59:28.215Z,96744.16
2022-10-25T01:01:56.562Z,96748.19
2022-10-25T01:04:28.551Z,96746.50
2022-10-25T01:06:55.641Z,96761.41
2022-10-25T01:09:27.773Z,96747.78
2022-10-25T01:11:55.194Z,96743.06
2022-10-25T01:14:23.418Z,96749.91
2022-10-25T01:17:23.704Z,96745.63
2022-10-25T01:20:32.136Z,96743.16
2022-10-25T01:23:49.376Z,96742.28
2022-10-25T01:27:10.587Z,96740.00
2022-10-25T01:30:17.341Z,96741.28
2022-10-25T01:33:07.731Z,96738.38
2022-10-25T01:36:18.140Z,96729.06
2022-10-25T01:39:10.585Z,96738.53
2022-10-25T01:41:45.322Z,96727.00
2022-10-25T01:44:50.032Z,96726.19
2022-10-25T01:47:22.055Z,96724.50
2022-10-25T01:50:21.035Z,96725.72
2022-10-25T01:52:47.867Z,96717.66
2022-10-25T01:55:15.740Z,96717.97
2022-10-25T01:58:11.251Z,96726.59
2022-10-25T02:01:13.300Z,96732.88
2022-10-25T02:04:07.763Z,96729.63
2022-10-25T02:07:00.666Z,96735.59
2022-10-25T02:09:34.268Z,96734.75
2022-10-25T02:12:04.136Z,96733.13
2022-10-25T02:14:35.986Z,96729.69
2022-10-25T02:17:23.377Z,96722.19
2022-10-25T02:19:56.743Z,96726.00
2022-10-25T02:22:29.721Z,96730.19
2022-10-25T02:24:57.982Z,96734.44
2022-10-25T02:27:25.989Z,96730.53
2022-10-25T02:29:54.083Z,96733.06
2022-10-25T02:32:21.674Z,96740.59
2022-10-25T02:34:49.517Z,96742.19
2022-10-25T02:37:17.461Z,96740.84
2022-10-25T02:39:46.045Z,96741.66
2022-10-25T02:42:12.950Z,96746.91
2022-10-25T02:44:39.761Z,96740.44
2022-10-25T02:47:06.573Z,96742.09
2022-10-25T02:49:33.364Z,96739.75
2022-10-25T02:52:00.245Z,96737.50
2022-10-25T02:54:27.040Z,96744.25
2022-10-25T02:56:54.036Z,96743.53
2022-10-25T02:59:21.369Z,96750.03
2022-10-25T03:01:48.948Z,96760.91
2022-10-25T03:04:15.893Z,96758.66
2022-10-25T03:06:42.684Z,96756.94
2022-10-25T03:09:09.576Z,96753.84
2022-10-25T03:11:36.347Z,96759.31
2022-10-25T03:14:03.133Z,96751.13
2022-10-25T03:16:29.988Z,96746.63
2022-10-25T03:18:58.580Z,96739.38
2022-10-25T03:21:25.822Z,96748.66
2022-10-25T03:23:53.224Z,96747.84
2022-10-25T03:26:20.212Z,96745.56
2022-10-25T03:28:47.000Z,96754.09
2022-10-25T03:31:16.720Z,96761.59
2022-10-25T03:33:43.727Z,96764.91
2022-10-25T03:36:10.993Z,96760.59
2022-10-25T03:38:37.808Z,96765.81
2022-10-25T03:41:04.919Z,96775.03
2022-10-25T03:43:31.761Z,96780.94
2022-10-25T03:45:58.633Z,96781.81
2022-10-25T03:48:25.640Z,96778.22
2022-10-25T03:50:54.244Z,96776.22
2022-10-25T03:53:21.287Z,96776.22
2022-10-25T03:55:49.770Z,96778.22
2022-10-25T03:58:17.254Z,96770.06
2022-10-25T04:00:44.268Z,96779.56
2022-10-25T04:03:11.313Z,96778.56
2022-10-25T04:05:38.639Z,96785.44
2022-10-25T04:08:06.171Z,96782.91
2022-10-25T04:10:32.969Z,96781.47
2022-10-25T04:12:59.864Z,96784.72
2022-10-25T04:15:26.695Z,96778.47
2022-10-25T04:17:53.769Z,96776.22
2022-10-25T04:20:21.518Z,96781.81
2022-10-25T04:22:58.137Z,96786.19
2022-10-25T04:25:27.337Z,96783.81
2022-10-25T04:27:54.689Z,96781.19
2022-10-25T04:30:21.586Z,96781.81
2022-10-25T04:32:48.810Z,96783.47
2022-10-25T04:35:16.080Z,96778.22
2022-10-25T04:37:42.868Z,96780.66
2022-10-25T04:40:10.934Z,96772.84
2022-10-25T04:42:37.721Z,96779.19
2022-10-25T04:45:04.910Z,96781.25
2022-10-25T04:47:33.221Z,96776.91
2022-10-25T04:50:00.230Z,96779.44
2022-10-25T04:52:29.838Z,96775.06
2022-10-25T04:54:57.034Z,96767.53
2022-10-25T04:57:25.095Z,96765.97
2022-10-25T04:59:52.659Z,96769.44
2022-10-25T05:02:19.748Z,96767.03
2022-10-25T05:04:46.536Z,96764.66
2022-10-25T05:07:13.325Z,96779.09
2022-10-25T05:09:42.655Z,96790.25
2022-10-25T05:12:15.482Z,96792.06
2022-10-25T05:14:45.070Z,96796.50
2022-10-25T05:17:11.900Z,96795.84
2022-10-25T05:19:38.755Z,96800.13
2022-10-25T05:22:05.593Z,96799.13
2022-10-25T05:24:32.404Z,96789.59
2022-10-25T05:26:59.204Z,96789.59
2022-10-25T05:29:26.094Z,96793.22
2022-10-25T05:31:52.881Z,96793.22
2022-10-25T05:34:19.681Z,96796.75
2022-10-25T05:36:46.548Z,96798.16
2022-10-25T05:39:13.358Z,96797.81
2022-10-25T05:41:40.221Z,96803.25
2022-10-25T05:44:07.180Z,96811.44
2022-10-25T05:46:34.036Z,96816.78
2022-10-25T05:49:01.135Z,96814.41
2022-10-25T05:51:35.063Z,96810.03
2022-10-25T05:54:07.345Z,96820.56
2022-10-25T05:56:35.399Z,96817.94
2022-10-25T05:59:09.560Z,96816.53
2022-10-25T06:01:38.689Z,96810.69
2022-10-25T06:04:05.862Z,96819.03
2022-10-25T06:06:32.892Z,96819.91
2022-10-25T06:09:00.894Z,96821.16
2022-10-25T06:11:29.589Z,96824.41
2022-10-25T06:13:56.524Z,96829.28
2022-10-25T06:16:24.527Z,96829.47
2022-10-25T06:18:52.909Z,96841.44
2022-10-25T06:21:27.184Z,96838.56
2022-10-25T06:23:54.978Z,96852.75
2022-10-25T06:26:25.777Z,96848.88
2022-10-25T06:28:55.623Z,96846.03
2022-10-25T06:31:23.350Z,96852.28
2022-10-25T06:33:50.585Z,96854.50
2022-10-25T06:36:20.938Z,96855.56
2022-10-25T06:38:49.151Z,96864.50
2022-10-25T06:41:24.448Z,96873.38
2022-10-25T06:43:51.996Z,96867.69
2022-10-25T06:46:28.469Z,96866.19
2022-10-25T06:48:57.329Z,96871.59
2022-10-25T06:51:26.051Z,96864.84
2022-10-25T06:53:58.344Z,96863.28
2022-10-25T06:56:25.846Z,96866.84
2022-10-25T06:58:53.076Z,96861.28
2022-10-25T07:01:22.620Z,96870.03
2022-10-25T07:03:50.913Z,96871.84
2022-10-25T07:06:23.177Z,96863.31
2022-10-25T07:08:55.038Z,96871.44
2022-10-25T07:11:23.364Z,96869.91
2022-10-25T07:13:50.194Z,96873.03
2022-10-25T07:16:19.396Z,96875.34
2022-10-25T07:18:47.125Z,96869.84
2022-10-25T07:21:20.836Z,96877.75
2022-10-25T07:23:49.531Z,96872.50
2022-10-25T07:26:23.636Z,96883.19
2022-10-25T07:28:53.191Z,96882.53
2022-10-25T07:31:43.035Z,96890.25
2022-10-25T07:34:13.548Z,96893.63
2022-10-25T07:36:40.862Z,96889.66
2022-10-25T07:39:07.786Z,96887.22
2022-10-25T07:41:34.557Z,96886.22
2022-10-25T07:44:01.411Z,96890.63
2022-10-25T07:46:28.188Z,96889.94
2022-10-25T07:48:55.071Z,96895.41
2022-10-25T07:51:21.958Z,96901.44
2022-10-25T07:53:49.817Z,96897.63
2022-10-25T07:56:23.080Z,96904.44
2022-10-25T07:58:52.213Z,96907.94
2022-10-25T08:01:25.551Z,96893.84
2022-10-25T08:03:53.753Z,96905.88
2022-10-25T08:06:23.010Z,96890.63
2022-10-25T08:08:50.462Z,96893.50
2022-10-25T08:11:17.920Z,96889.84
2022-10-25T08:13:44.708Z,96894.25
2022-10-25T08:16:11.510Z,96883.69
2022-10-25T08:18:38.289Z,96885.66
2022-10-25T08:21:05.301Z,96884.03
2022-10-25T08:23:33.061Z,96884.47
2022-10-25T08:26:02.687Z,96886.16
2022-10-25T08:28:33.116Z,96882.44
2022-10-25T08:31:01.161Z,96881.41
2022-10-25T08:33:28.949Z,96876.00
2022-10-25T08:35:55.841Z,96876.25
2022-10-25T08:38:22.663Z,96881.44
2022-10-25T08:41:15.774Z,96881.16
2022-10-25T08:44:08.588Z,96881.50
2022-10-25T08:46:55.842Z,96878.03
2022-10-25T08:49:36.281Z,96874.53
2022-10-25T08:52:05.838Z,96880.50
2022-10-25T08:54:39.028Z,96876.13
2022-10-25T08:57:19.715Z,96884.84
2022-10-25T08:59:52.270Z,96879.09
2022-10-25T09:02:39.584Z,96889.38
2022-10-25T09:05:40.315Z,96887.38
2022-10-25T09:08:34.831Z,96893.13
2022-10-25T09:11:19.637Z,96893.75
2022-10-25T09:14:05.249Z,96901.53
2022-10-25T09:16:45.956Z,96893.97
2022-10-25T09:19:44.429Z,96892.59
2022-10-25T09:22:29.069Z,96888.81
2022-10-25T09:25:08.423Z,96886.44
2022-10-25T09:27:52.751Z,96885.25
2022-10-25T09:30:19.669Z,96890.81
2022-10-25T09:32:51.581Z,96897.63
2022-10-25T09:35:26.233Z,96905.94
2022-10-25T09:37:59.397Z,96900.03
2022-10-25T09:40:32.723Z,96906.75
2022-10-25T09:45:48.104Z,96899.41
2022-10-25T09:48:46.580Z,96904.81
2022-10-25T09:51:24.695Z,96900.56
2022-10-25T09:53:53.149Z,96894.78
2022-10-25T09:56:20.083Z,96891.63
2022-10-25T09:58:47.420Z,96889.47
2022-10-25T10:01:20.309Z,96887.59
2022-10-25T10:03:50.864Z,96889.41
2022-10-25T10:06:29.488Z,96893.94
2022-10-25T10:09:08.038Z,96885.38
2022-10-25T10:11:36.613Z,96897.34
2022-10-25T10:14:09.956Z,96890.06
2022-10-25T10:16:45.262Z,96890.75
2022-10-25T10:19:26.135Z,96889.50
2022-10-25T10:22:15.061Z,96889.34
2022-10-25T10:25:00.367Z,96885.16
2022-10-25T10:27:28.827Z,96881.94
2022-10-25T10:30:00.448Z,96887.75
2022-10-25T10:32:32.984Z,96873.84
2022-10-25T10:35:00.056Z,96879.16
2022-10-25T10:37:29.574Z,96875.66
2022-10-25T10:40:01.054Z,96878.72
2022-10-25T10:42:34.659Z,96873.63
2022-10-25T10:45:13.189Z,96879.25
2022-10-25T10:47:52.204Z,96872.34
2022-10-25T10:50:26.519Z,96861.69
2022-10-25T10:52:55.217Z,96872.88
2022-10-25T10:55:39.760Z,96872.25
2022-10-25T10:58:32.039Z,96870.31
2022-10-25T11:01:06.768Z,96869.22
2022-10-25T11:03:53.513Z,96857.81
2022-10-25T11:06:36.515Z,96853.06
2022-10-25T11:09:19.229Z,96850.38
2022-10-25T11:12:11.489Z,96858.25
2022-10-25T11:14:38.587Z,96849.63
2022-10-25T11:17:20.281Z,96855.84
2022-10-25T11:20:07.326Z,96844.88
2022-10-25T11:25:38.175Z,96840.63
2022-10-25T11:29:00.883Z,96830.69
2022-10-25T11:32:07.502Z,96841.78
2022-10-25T11:35:41.073Z,96829.16
2022-10-25T11:38:39.641Z,96839.34
2022-10-25T11:41:27.494Z,96830.91
2022-10-25T11:44:02.291Z,96829.13
2022-10-25T11:47:09.416Z,96824.38
2022-10-25T11:50:15.093Z,96816.19
2022-10-25T11:52:59.950Z,96817.41
2022-10-25T11:55:42.979Z,96816.50
2022-10-25T11:58:50.787Z,96817.78
2022-10-25T12:01:48.813Z,96805.03
2022-10-25T12:04:15.576Z,96806.38
2022-10-25T12:07:08.625Z,96807.16
2022-10-25T12:09:47.254Z,96812.31
2022-10-25T12:12:22.309Z,96808.44
2022-10-25T12:14:55.058Z,96806.66
2022-10-25T12:17:34.054Z,96806.16
2022-10-25T12:20:07.601Z,96805.97
2022-10-25T12:22:40.219Z,96807.06
2022-10-25T12:25:35.253Z,96807.28
2022-10-25T12:28:18.219Z,96799.28
2022-10-25T12:30:46.397Z,96795.72
2022-10-25T12:33:19.017Z,96802.06
2022-10-25T12:35:51.414Z,96801.91
2022-10-25T12:38:31.530Z,96794.81
2022-10-25T12:41:06.489Z,96790.44
2022-10-25T12:44:06.457Z,96784.22
2022-10-25T12:47:21.136Z,96788.63
2022-10-25T12:49:59.597Z,96781.16
2022-10-25T12:53:25.141Z,96786.91
2022-10-25T12:56:46.561Z,96782.13
2022-10-25T12:59:56.302Z,96777.88
2022-10-25T13:02:47.806Z,96772.84
2022-10-25T13:05:49.914Z,96779.56
2022-10-25T13:08:20.181Z,96766.72
2022-10-25T13:10:57.414Z,96776.28
2022-10-25T13:13:27.893Z,96773.50
2022-10-25T13:15:59.020Z,96755.88
2022-10-25T13:18:29.652Z,96757.31
2022-10-25T13:20:56.550Z,96764.00
2022-10-25T13:23:42.228Z,96769.47
2022-10-25T13:26:11.573Z,96766.03
2022-10-25T13:28:52.176Z,96759.00
2022-10-25T13:31:34.687Z,96763.50
2022-10-25T13:34:13.421Z,96758.19
2022-10-25T13:36:55.284Z,96760.72
2022-10-25T13:39:45.106Z,96762.25
2022-10-25T13:42:14.874Z,96764.41
2022-10-25T13:45:04.874Z,96759.56
2022-10-25T13:47:40.924Z,96761.97
2022-10-25T13:50:42.730Z,96760.47
2022-10-25T13:53:38.516Z,96750.66
2022-10-25T13:56:16.108Z,96751.03
2022-10-25T13:58:57.405Z,96743.97
2022-10-25T14:01:25.334Z,96748.59
2022-10-25T14:03:55.076Z,96745.31
2022-10-25T14:06:32.953Z,96743.53
2022-10-25T14:09:30.901Z,96738.03
2022-10-25T14:12:06.565Z,96736.00
2022-10-25T14:14:47.605Z,96735.06
2022-10-25T14:17:31.571Z,96733.25
2022-10-25T14:20:02.603Z,96732.13
2022-10-25T14:22:42.502Z,96735.44
2022-10-25T14:25:18.317Z,96734.81
2022-10-25T14:27:45.338Z,96739.38
2022-10-25T14:30:21.509Z,96735.09
2022-10-25T14:33:04.103Z,96743.84
2022-10-25T14:35:45.277Z,96744.00
2022-10-25T14:38:22.102Z,96735.38
2022-10-25T14:41:12.612Z,96749.03
2022-10-25T14:43:39.706Z,96738.59
2022-10-25T14:46:06.395Z,96740.34
2022-10-25T14:48:33.755Z,96735.09
2022-10-25T14:51:22.174Z,96735.06
2022-10-25T14:53:56.849Z,96738.28
2022-10-25T14:56:29.434Z,96737.38
2022-10-25T14:58:57.241Z,96728.81
2022-10-25T15:01:24.623Z,96736.38
2022-10-25T15:03:56.260Z,96733.22
2022-10-25T15:06:27.063Z,96736.84
2022-10-25T15:09:37.322Z,96733.19
2022-10-25T15:12:17.430Z,96731.97
2022-10-25T15:14:46.482Z,96729.06
2022-10-25T15:17:27.442Z,96722.09
2022-10-25T15:20:13.852Z,96726.63
2022-10-25T15:22:43.865Z,96725.03
2022-10-25T15:25:40.394Z,96727.41
2022-10-25T15:28:18.363Z,96727.50
2022-10-25T15:30:47.823Z,96737.06
2022-10-25T15:33:29.012Z,96730.47
2022-10-25T15:36:00.215Z,96735.97
2022-10-25T15:38:47.754Z,96735.91
2022-10-25T15:41:17.985Z,96725.41
2022-10-25T15:43:44.776Z,96732.72
2022-10-25T15:46:33.082Z,96728.50
2022-10-25T15:49:08.220Z,96733.09
2022-10-25T15:51:39.341Z,96730.38
2022-10-25T15:54:12.695Z,96725.78
2022-10-25T15:56:39.486Z,96726.88
2022-10-25T15:59:06.334Z,96733.31
2022-10-25T16:01:33.259Z,96732.56
2022-10-25T16:04:00.156Z,96740.34
2022-10-25T16:06:27.013Z,96737.31
2022-10-25T16:08:53.787Z,96728.06
2022-10-25T16:11:21.420Z,96732.09
2022-10-25T16:13:51.835Z,96738.75
2022-10-25T16:16:41.767Z,96732.59
2022-10-25T16:19:18.581Z,96737.69
2022-10-25T16:21:45.585Z,96735.34
2022-10-25T16:24:12.752Z,96742.59
2022-10-25T16:26:46.462Z,96737.34
2022-10-25T16:29:24.995Z,96737.09
2022-10-25T16:31:53.805Z,96733.09
2022-10-25T16:34:20.722Z,96744.03
2022-10-25T16:36:50.246Z,96742.69
2022-10-25T16:39:17.209Z,96737.88
2022-10-25T16:41:46.609Z,96743.94
2022-10-25T16:44:17.431Z,96741.50
2022-10-25T16:46:45.166Z,96737.72
2022-10-25T16:49:12.568Z,96736.59
2022-10-25T16:51:40.101Z,96741.13
2022-10-25T16:54:07.397Z,96741.59
2022-10-25T16:56:34.199Z,96740.22
2022-10-25T16:59:00.986Z,96736.78
2022-10-25T17:01:34.264Z,96740.94
2022-10-25T17:04:04.122Z,96738.97
2022-10-25T17:06:46.453Z,96744.25
2022-10-25T17:09:13.252Z,96757.31
2022-10-25T17:11:40.375Z,96741.09
2022-10-25T17:14:09.514Z,96753.41
2022-10-25T17:16:37.055Z,96747.69
2022-10-25T17:19:04.185Z,96757.50
2022-10-25T17:21:33.190Z,96764.88
2022-10-25T17:24:00.199Z,96765.38
2022-10-25T17:26:26.992Z,96761.38
2022-10-25T17:28:53.961Z,96761.78
2022-10-25T17:31:21.085Z,96762.66
2022-10-25T17:33:48.024Z,96774.06
2022-10-25T17:36:18.398Z,96768.41
2022-10-25T17:38:45.648Z,96766.41
2022-10-25T17:41:13.845Z,96771.06
2022-10-25T17:43:41.613Z,96771.69
2022-10-25T17:46:17.097Z,96766.00
2022-10-25T17:48:43.957Z,96755.88
2022-10-25T17:51:13.930Z,96765.63
2022-10-25T17:53:41.175Z,96766.00
2022-10-25T17:56:18.425Z,96765.19
2022-10-25T17:58:47.566Z,96757.91
2022-10-25T18:01:18.788Z,96764.81
2022-10-25T18:03:46.006Z,96757.91
2022-10-25T18:06:17.214Z,96756.50
2022-10-25T18:08:45.367Z,96753.03
2022-10-25T18:11:23.106Z,96755.44
2022-10-25T18:13:52.481Z,96755.44
2022-10-25T18:16:21.637Z,96755.06
2022-10-25T18:18:48.983Z,96762.34
2022-10-25T18:21:16.252Z,96751.19
2022-10-25T18:23:43.264Z,96752.22
2022-10-25T18:26:12.458Z,96752.22
2022-10-25T18:28:39.772Z,96746.50
2022-10-25T18:31:12.653Z,96746.31
2022-10-25T18:33:41.790Z,96749.97
2022-10-25T18:36:15.845Z,96748.97
2022-10-25T18:38:42.663Z,96742.03
2022-10-25T18:41:17.395Z,96742.66
2022-10-25T18:43:44.557Z,96740.03
2022-10-25T18:46:11.687Z,96740.41
2022-10-25T18:48:38.523Z,96736.75
2022-10-25T18:51:09.193Z,96735.13
2022-10-25T18:53:36.369Z,96731.09
2022-10-25T18:56:03.233Z,96741.66
2022-10-25T18:58:33.160Z,96750.16
2022-10-25T19:01:11.720Z,96732.72
2022-10-25T19:03:39.481Z,96728.03
2022-10-25T19:06:07.428Z,96731.09
2022-10-25T19:08:35.676Z,96737.19
2022-10-25T19:11:05.090Z,96738.22
2022-10-25T19:13:31.967Z,96735.56
2022-10-25T19:15:59.297Z,96733.50
2022-10-25T19:18:28.535Z,96730.66
2022-10-25T19:21:00.773Z,96733.09
2022-10-25T19:23:27.650Z,96725.34
2022-10-25T19:25:54.765Z,96722.94
2022-10-25T19:28:21.860Z,96726.19
2022-10-25T19:30:48.644Z,96722.13
2022-10-25T19:33:15.523Z,96717.06
2022-10-25T19:35:42.361Z,96713.41
2022-10-25T19:38:09.147Z,96722.13
2022-10-25T19:40:35.942Z,96710.56
2022-10-25T19:43:02.745Z,96711.16
2022-10-25T19:45:29.545Z,96711.00
2022-10-25T19:47:58.028Z,96699.00
2022-10-25T19:50:24.889Z,96712.44
2022-10-25T19:52:51.994Z,96705.09
2022-10-25T19:55:18.799Z,96696.59
2022-10-25T19:57:45.935Z,96701.44
2022-10-25T20:00:13.750Z,96699.44
2022-10-25T20:02:40.761Z,96696.56
2022-10-25T20:05:08.298Z,96695.78
2022-10-25T20:07:35.861Z,96687.84
2022-10-25T20:10:02.668Z,96684.41
2022-10-25T20:12:30.454Z,96689.69
2022-10-25T20:14:58.388Z,96689.69
2022-10-25T20:17:25.205Z,96696.59
2022-10-25T20:19:52.016Z,96697.81
2022-10-25T20:22:18.818Z,96697.78
2022-10-25T20:24:45.707Z,96700.22
2022-10-25T20:27:12.813Z,96697.38
2022-10-25T20:29:40.093Z,96691.28
2022-10-25T20:32:06.931Z,96701.84
2022-10-25T20:34:35.184Z,96698.19
2022-10-25T20:37:03.744Z,96703.84
2022-10-25T20:39:30.627Z,96707.50
2022-10-25T20:41:57.481Z,96695.31
2022-10-25T20:44:24.362Z,96693.69
2022-10-25T20:46:51.272Z,96697.75
2022-10-25T20:49:18.121Z,96700.00
2022-10-25T20:51:44.908Z,96697.38
2022-10-25T20:54:11.697Z,96697.38
2022-10-25T20:56:39.485Z,96699.38
2022-10-25T20:59:06.888Z,96703.47
2022-10-25T21:01:33.900Z,96702.84
2022-10-25T21:04:00.858Z,96703.47
2022-10-25T21:06:27.727Z,96700.00
2022-10-25T21:08:54.548Z,96704.88
2022-10-25T21:11:21.363Z,96703.03
2022-10-25T21:13:48.232Z,96696.13
2022-10-25T21:16:16.561Z,96692.91
2022-10-25T21:18:44.160Z,96690.25
2022-10-25T21:21:19.619Z,96690.03
2022-10-25T21:23:47.464Z,96677.06
2022-10-25T21:26:14.385Z,96683.16
2022-10-25T21:28:41.755Z,96683.16
2022-10-25T21:31:12.240Z,96687.59
2022-10-25T21:33:39.368Z,96681.56
2022-10-25T21:36:11.308Z,96684.97
2022-10-25T21:38:38.754Z,96677.47
2022-10-25T21:41:26.325Z,96678.69
2022-10-25T21:43:54.671Z,96679.91
2022-10-25T21:46:23.886Z,96674.03
2022-10-25T21:48:51.421Z,96674.22
2022-10-25T21:51:24.305Z,96672.81
2022-10-25T21:56:23.366Z,96666.09
2022-10-25T21:58:50.882Z,96656.38
2022-10-25T22:01:21.293Z,96656.38
2022-10-25T22:03:48.360Z,96655.34
2022-10-25T22:06:18.895Z,96658.19
2022-10-25T22:08:46.084Z,96658.81
2022-10-25T22:11:21.148Z,96657.19
2022-10-25T22:13:48.492Z,96660.84
2022-10-25T22:16:18.309Z,96653.13
2022-10-25T22:19:00.039Z,96651.09
2022-10-25T22:21:32.721Z,96646.81
2022-10-25T22:23:59.525Z,96641.34
2022-10-25T22:26:26.647Z,96644.63
2022-10-25T22:28:56.056Z,96649.47
2022-10-25T22:31:23.722Z,96642.56
2022-10-25T22:33:56.090Z,96651.47
2022-10-25T22:36:30.020Z,96646.22
2022-10-25T22:38:57.614Z,96637.50
2022-10-25T22:41:27.032Z,96629.59
2022-10-25T22:43:53.947Z,96632.81
2022-10-25T22:46:28.415Z,96643.78
2022-10-25T22:48:57.649Z,96642.16
2022-10-25T22:51:27.576Z,96638.09
2022-10-25T22:53:54.867Z,96637.72
2022-10-25T22:56:25.364Z,96630.81
2022-10-25T22:58:59.821Z,96631.19
2022-10-25T23:01:30.245Z,96633.63
2022-10-25T23:03:58.968Z,96644.19
2022-10-25T23:06:31.719Z,96633.63
2022-10-25T23:09:01.432Z,96638.91
2022-10-25T23:11:33.282Z,96639.09
2022-10-25T23:14:01.524Z,96648.25
2022-10-25T23:16:29.557Z,96641.75
2022-10-25T23:18:56.744Z,96639.34
2022-10-25T23:21:26.711Z,96648.25
2022-10-25T23:23:54.749Z,96638.53
2022-10-25T23:26:30.592Z,96628.38
2022-10-25T23:28:57.685Z,96626.72
2022-10-25T23:31:25.560Z,96635.66
2022-10-25T23:33:58.108Z,96639.72
2022-10-25T23:36:29.156Z,96649.47
2022-10-25T23:38:57.941Z,96640.53
2022-10-25T23:41:24.714Z,96638.53
2022-10-25T23:43:51.531Z,96648.25
2022-10-25T23:46:18.605Z,96647.03
2022-10-25T23:48:45.560Z,96647.22
2022-10-25T23:51:16.055Z,96645.38
2022-10-25T23:53:43.392Z,96645.03
2022-10-25T23:56:12.617Z,96644.59
2022-10-25T23:58:39.703Z,96644.81
